sensor_id;sensor_type;location;lat;lon;timestamp;P1;durP1;ratioP1;P2;durP2;ratioP2
35294;SDS011;21413;48.032;7.764;2023-03-21T00:00:46;6.80;;;6.10;;
35294;SDS011;21413;48.032;7.764;2023-03-21T00:03:14;7.80;;;7.00;;
35294;SDS011;21413;48.032;7.764;2023-03-21T00:05:41;8.03;;;7.23;;
35294;SDS011;21413;48.032;7.764;2023-03-21T00:08:09;7.90;;;6.90;;
35294;SDS011;21413;48.032;7.764;2023-03-21T00:10:35;7.30;;;6.73;;
35294;SDS011;21413;48.032;7.764;2023-03-21T00:13:01;6.97;;;6.37;;
35294;SDS011;21413;48.032;7.764;2023-03-21T00:15:27;7.47;;;6.87;;
35294;SDS011;21413;48.032;7.764;2023-03-21T00:17:54;13.38;;;8.75;;
35294;SDS011;21413;48.032;7.764;2023-03-21T00:20:28;10.33;;;9.30;;
35294;SDS011;21413;48.032;7.764;2023-03-21T00:22:54;15.30;;;10.43;;
35294;SDS011;21413;48.032;7.764;2023-03-21T00:25:20;10.10;;;9.00;;
35294;SDS011;21413;48.032;7.764;2023-03-21T00:27:48;7.37;;;6.67;;
35294;SDS011;21413;48.032;7.764;2023-03-21T00:30:14;5.90;;;5.47;;
35294;SDS011;21413;48.032;7.764;2023-03-21T00:32:40;6.80;;;6.30;;
35294;SDS011;21413;48.032;7.764;2023-03-21T00:35:07;9.33;;;7.27;;
35294;SDS011;21413;48.032;7.764;2023-03-21T00:37:33;7.77;;;7.17;;
35294;SDS011;21413;48.032;7.764;2023-03-21T00:39:59;7.03;;;6.43;;
35294;SDS011;21413;48.032;7.764;2023-03-21T00:42:25;6.77;;;6.27;;
35294;SDS011;21413;48.032;7.764;2023-03-21T00:44:54;8.17;;;7.47;;
35294;SDS011;21413;48.032;7.764;2023-03-21T00:47:20;7.27;;;6.67;;
35294;SDS011;21413;48.032;7.764;2023-03-21T00:49:46;7.13;;;6.53;;
35294;SDS011;21413;48.032;7.764;2023-03-21T00:52:14;7.03;;;6.43;;
35294;SDS011;21413;48.032;7.764;2023-03-21T00:54:40;6.10;;;5.60;;
35294;SDS011;21413;48.032;7.764;2023-03-21T00:57:06;7.20;;;6.70;;
35294;SDS011;21413;48.032;7.764;2023-03-21T00:59:32;6.07;;;5.57;;
35294;SDS011;21413;48.032;7.764;2023-03-21T01:02:01;8.10;;;5.50;;
35294;SDS011;21413;48.032;7.764;2023-03-21T01:04:31;8.00;;;5.20;;
35294;SDS011;21413;48.032;7.764;2023-03-21T01:06:58;5.67;;;5.27;;
35294;SDS011;21413;48.032;7.764;2023-03-21T01:09:24;5.93;;;5.23;;
35294;SDS011;21413;48.032;7.764;2023-03-21T01:11:52;5.57;;;5.27;;
35294;SDS011;21413;48.032;7.764;2023-03-21T01:14:19;5.20;;;4.90;;
35294;SDS011;21413;48.032;7.764;2023-03-21T01:16:45;5.00;;;4.60;;
35294;SDS011;21413;48.032;7.764;2023-03-21T01:19:14;4.80;;;4.50;;
35294;SDS011;21413;48.032;7.764;2023-03-21T01:21:41;4.67;;;4.40;;
35294;SDS011;21413;48.032;7.764;2023-03-21T01:24:07;5.40;;;4.87;;
35294;SDS011;21413;48.032;7.764;2023-03-21T01:26:33;5.50;;;4.87;;
35294;SDS011;21413;48.032;7.764;2023-03-21T01:29:01;5.13;;;4.47;;
35294;SDS011;21413;48.032;7.764;2023-03-21T01:31:27;5.33;;;4.70;;
35294;SDS011;21413;48.032;7.764;2023-03-21T01:33:53;4.43;;;3.97;;
35294;SDS011;21413;48.032;7.764;2023-03-21T01:36:20;4.70;;;3.87;;
35294;SDS011;21413;48.032;7.764;2023-03-21T01:38:46;4.10;;;3.90;;
35294;SDS011;21413;48.032;7.764;2023-03-21T01:41:20;4.63;;;4.23;;
35294;SDS011;21413;48.032;7.764;2023-03-21T01:43:47;4.03;;;3.77;;
35294;SDS011;21413;48.032;7.764;2023-03-21T01:49:06;4.20;;;3.80;;
35294;SDS011;21413;48.032;7.764;2023-03-21T01:51:40;3.93;;;3.60;;
35294;SDS011;21413;48.032;7.764;2023-03-21T01:54:08;3.73;;;3.63;;
35294;SDS011;21413;48.032;7.764;2023-03-21T01:56:36;4.07;;;3.97;;
35294;SDS011;21413;48.032;7.764;2023-03-21T01:59:17;3.70;;;3.60;;
35294;SDS011;21413;48.032;7.764;2023-03-21T02:01:46;4.30;;;4.10;;
35294;SDS011;21413;48.032;7.764;2023-03-21T02:04:13;4.03;;;3.80;;
35294;SDS011;21413;48.032;7.764;2023-03-21T02:06:47;4.07;;;3.90;;
35294;SDS011;21413;48.032;7.764;2023-03-21T02:09:18;4.50;;;4.00;;
35294;SDS011;21413;48.032;7.764;2023-03-21T02:11:47;3.70;;;3.40;;
35294;SDS011;21413;48.032;7.764;2023-03-21T02:14:14;4.97;;;4.57;;
35294;SDS011;21413;48.032;7.764;2023-03-21T02:37:01;5.47;;;5.07;;
35294;SDS011;21413;48.032;7.764;2023-03-21T02:50:06;3.60;;;3.40;;
35294;SDS011;21413;48.032;7.764;2023-03-21T02:52:34;3.80;;;3.70;;
35294;SDS011;21413;48.032;7.764;2023-03-21T02:55:01;4.17;;;3.77;;
35294;SDS011;21413;48.032;7.764;2023-03-21T02:57:28;4.03;;;3.78;;
35294;SDS011;21413;48.032;7.764;2023-03-21T02:59:57;4.40;;;4.10;;
35294;SDS011;21413;48.032;7.764;2023-03-21T03:02:25;4.63;;;4.33;;
35294;SDS011;21413;48.032;7.764;2023-03-21T03:04:51;4.00;;;3.80;;
35294;SDS011;21413;48.032;7.764;2023-03-21T03:07:28;4.00;;;3.88;;
35294;SDS011;21413;48.032;7.764;2023-03-21T03:15:23;4.77;;;4.57;;
35294;SDS011;21413;48.032;7.764;2023-03-21T03:25:16;5.07;;;4.73;;
35294;SDS011;21413;48.032;7.764;2023-03-21T03:27:50;5.03;;;4.63;;
35294;SDS011;21413;48.032;7.764;2023-03-21T03:30:17;4.60;;;4.30;;
35294;SDS011;21413;48.032;7.764;2023-03-21T03:32:45;4.82;;;4.40;;
35294;SDS011;21413;48.032;7.764;2023-03-21T03:35:14;4.60;;;4.30;;
35294;SDS011;21413;48.032;7.764;2023-03-21T03:37:40;4.55;;;4.35;;
35294;SDS011;21413;48.032;7.764;2023-03-21T03:42:37;4.30;;;3.93;;
35294;SDS011;21413;48.032;7.764;2023-03-21T03:45:06;6.73;;;3.50;;
35294;SDS011;21413;48.032;7.764;2023-03-21T03:47:44;4.10;;;3.80;;
35294;SDS011;21413;48.032;7.764;2023-03-21T03:52:48;3.70;;;3.60;;
35294;SDS011;21413;48.032;7.764;2023-03-21T03:55:15;4.43;;;3.63;;
35294;SDS011;21413;48.032;7.764;2023-03-21T03:57:42;4.18;;;4.07;;
35294;SDS011;21413;48.032;7.764;2023-03-21T04:00:10;3.50;;;3.30;;
35294;SDS011;21413;48.032;7.764;2023-03-21T04:02:37;4.35;;;3.92;;
35294;SDS011;21413;48.032;7.764;2023-03-21T04:05:03;4.18;;;3.97;;
35294;SDS011;21413;48.032;7.764;2023-03-21T04:07:29;4.22;;;3.90;;
35294;SDS011;21413;48.032;7.764;2023-03-21T04:09:55;4.40;;;4.00;;
35294;SDS011;21413;48.032;7.764;2023-03-21T04:12:24;5.73;;;5.37;;
35294;SDS011;21413;48.032;7.764;2023-03-21T04:14:50;8.32;;;7.32;;
35294;SDS011;21413;48.032;7.764;2023-03-21T04:17:16;8.00;;;7.20;;
35294;SDS011;21413;48.032;7.764;2023-03-21T04:19:42;5.68;;;5.25;;
35294;SDS011;21413;48.032;7.764;2023-03-21T04:22:09;5.15;;;4.95;;
35294;SDS011;21413;48.032;7.764;2023-03-21T04:24:36;6.00;;;4.45;;
35294;SDS011;21413;48.032;7.764;2023-03-21T04:27:02;11.65;;;5.20;;
35294;SDS011;21413;48.032;7.764;2023-03-21T04:29:29;5.40;;;5.10;;
35294;SDS011;21413;48.032;7.764;2023-03-21T04:31:56;5.70;;;5.30;;
35294;SDS011;21413;48.032;7.764;2023-03-21T04:34:22;4.90;;;4.50;;
35294;SDS011;21413;48.032;7.764;2023-03-21T04:36:52;4.85;;;4.50;;
35294;SDS011;21413;48.032;7.764;2023-03-21T04:39:20;5.07;;;4.60;;
35294;SDS011;21413;48.032;7.764;2023-03-21T04:41:48;5.35;;;4.95;;
35294;SDS011;21413;48.032;7.764;2023-03-21T04:44:15;5.10;;;4.60;;
35294;SDS011;21413;48.032;7.764;2023-03-21T04:46:41;4.68;;;4.47;;
35294;SDS011;21413;48.032;7.764;2023-03-21T04:49:10;5.55;;;5.25;;
35294;SDS011;21413;48.032;7.764;2023-03-21T04:51:36;8.02;;;4.30;;
35294;SDS011;21413;48.032;7.764;2023-03-21T04:54:03;8.93;;;7.18;;
35294;SDS011;21413;48.032;7.764;2023-03-21T04:56:29;6.83;;;4.13;;
35294;SDS011;21413;48.032;7.764;2023-03-21T04:59:01;4.68;;;4.30;;
35294;SDS011;21413;48.032;7.764;2023-03-21T05:01:27;3.85;;;3.72;;
35294;SDS011;21413;48.032;7.764;2023-03-21T05:03:56;3.60;;;3.28;;
35294;SDS011;21413;48.032;7.764;2023-03-21T05:06:22;5.43;;;5.05;;
35294;SDS011;21413;48.032;7.764;2023-03-21T05:08:48;98.27;;;57.40;;
35294;SDS011;21413;48.032;7.764;2023-03-21T05:11:14;111.43;;;57.03;;
35294;SDS011;21413;48.032;7.764;2023-03-21T05:13:40;46.80;;;27.10;;
35294;SDS011;21413;48.032;7.764;2023-03-21T05:16:06;60.50;;;35.57;;
35294;SDS011;21413;48.032;7.764;2023-03-21T05:18:32;66.60;;;38.33;;
35294;SDS011;21413;48.032;7.764;2023-03-21T05:20:58;33.77;;;20.67;;
35294;SDS011;21413;48.032;7.764;2023-03-21T05:23:24;6.07;;;5.53;;
35294;SDS011;21413;48.032;7.764;2023-03-21T05:25:55;44.23;;;28.10;;
35294;SDS011;21413;48.032;7.764;2023-03-21T05:28:21;44.10;;;28.00;;
35294;SDS011;21413;48.032;7.764;2023-03-21T05:30:55;25.00;;;14.77;;
35294;SDS011;21413;48.032;7.764;2023-03-21T05:33:21;11.30;;;9.70;;
35294;SDS011;21413;48.032;7.764;2023-03-21T05:35:50;5.60;;;5.30;;
35294;SDS011;21413;48.032;7.764;2023-03-21T05:38:16;39.57;;;28.50;;
35294;SDS011;21413;48.032;7.764;2023-03-21T05:40:49;35.47;;;26.67;;
35294;SDS011;21413;48.032;7.764;2023-03-21T05:43:15;5.50;;;5.20;;
35294;SDS011;21413;48.032;7.764;2023-03-21T05:45:41;7.23;;;3.97;;
35294;SDS011;21413;48.032;7.764;2023-03-21T05:48:07;3.88;;;3.78;;
35294;SDS011;21413;48.032;7.764;2023-03-21T05:50:37;3.50;;;3.38;;
35294;SDS011;21413;48.032;7.764;2023-03-21T05:53:03;3.90;;;3.80;;
35294;SDS011;21413;48.032;7.764;2023-03-21T05:55:29;3.85;;;3.65;;
35294;SDS011;21413;48.032;7.764;2023-03-21T05:57:57;3.80;;;3.50;;
35294;SDS011;21413;48.032;7.764;2023-03-21T06:00:26;5.20;;;4.70;;
35294;SDS011;21413;48.032;7.764;2023-03-21T06:02:52;27.53;;;20.17;;
35294;SDS011;21413;48.032;7.764;2023-03-21T06:05:18;9.98;;;8.50;;
35294;SDS011;21413;48.032;7.764;2023-03-21T06:07:44;18.23;;;6.27;;
35294;SDS011;21413;48.032;7.764;2023-03-21T06:10:12;9.50;;;6.60;;
35294;SDS011;21413;48.032;7.764;2023-03-21T06:12:39;7.10;;;6.50;;
35294;SDS011;21413;48.032;7.764;2023-03-21T06:15:08;11.65;;;5.78;;
35294;SDS011;21413;48.032;7.764;2023-03-21T06:17:34;5.78;;;5.22;;
35294;SDS011;21413;48.032;7.764;2023-03-21T06:20:01;5.63;;;5.15;;
35294;SDS011;21413;48.032;7.764;2023-03-21T06:22:29;5.73;;;5.23;;
35294;SDS011;21413;48.032;7.764;2023-03-21T06:24:55;6.73;;;4.93;;
35294;SDS011;21413;48.032;7.764;2023-03-21T06:27:21;10.33;;;5.43;;
35294;SDS011;21413;48.032;7.764;2023-03-21T06:29:47;5.87;;;5.33;;
35294;SDS011;21413;48.032;7.764;2023-03-21T06:32:13;5.00;;;4.70;;
35294;SDS011;21413;48.032;7.764;2023-03-21T06:34:40;4.40;;;4.20;;
35294;SDS011;21413;48.032;7.764;2023-03-21T06:37:08;4.30;;;4.00;;
35294;SDS011;21413;48.032;7.764;2023-03-21T06:39:34;7.50;;;4.87;;
35294;SDS011;21413;48.032;7.764;2023-03-21T06:42:00;5.90;;;5.30;;
35294;SDS011;21413;48.032;7.764;2023-03-21T06:44:27;5.67;;;5.13;;
35294;SDS011;21413;48.032;7.764;2023-03-21T06:46:53;4.60;;;4.50;;
35294;SDS011;21413;48.032;7.764;2023-03-21T06:49:19;4.90;;;4.70;;
35294;SDS011;21413;48.032;7.764;2023-03-21T06:51:47;4.10;;;3.90;;
35294;SDS011;21413;48.032;7.764;2023-03-21T06:54:16;4.60;;;4.33;;
35294;SDS011;21413;48.032;7.764;2023-03-21T06:56:42;5.37;;;4.87;;
35294;SDS011;21413;48.032;7.764;2023-03-21T06:59:11;4.13;;;3.93;;
35294;SDS011;21413;48.032;7.764;2023-03-21T07:01:37;4.10;;;3.90;;
35294;SDS011;21413;48.032;7.764;2023-03-21T07:04:03;4.07;;;3.70;;
35294;SDS011;21413;48.032;7.764;2023-03-21T07:06:30;3.27;;;3.23;;
35294;SDS011;21413;48.032;7.764;2023-03-21T07:08:56;3.80;;;3.70;;
35294;SDS011;21413;48.032;7.764;2023-03-21T07:11:23;3.83;;;3.63;;
35294;SDS011;21413;48.032;7.764;2023-03-21T07:13:49;3.90;;;3.77;;
35294;SDS011;21413;48.032;7.764;2023-03-21T07:16:15;3.67;;;3.57;;
35294;SDS011;21413;48.032;7.764;2023-03-21T07:18:42;4.30;;;3.53;;
35294;SDS011;21413;48.032;7.764;2023-03-21T07:21:11;3.40;;;3.30;;
35294;SDS011;21413;48.032;7.764;2023-03-21T07:23:37;3.60;;;3.27;;
35294;SDS011;21413;48.032;7.764;2023-03-21T07:26:03;3.80;;;3.50;;
35294;SDS011;21413;48.032;7.764;2023-03-21T07:28:29;4.10;;;4.00;;
35294;SDS011;21413;48.032;7.764;2023-03-21T07:31:02;5.70;;;5.30;;
35294;SDS011;21413;48.032;7.764;2023-03-21T07:33:28;4.93;;;4.73;;
35294;SDS011;21413;48.032;7.764;2023-03-21T07:35:55;5.77;;;5.47;;
35294;SDS011;21413;48.032;7.764;2023-03-21T07:38:22;6.10;;;5.70;;
35294;SDS011;21413;48.032;7.764;2023-03-21T07:40:50;5.17;;;4.97;;
35294;SDS011;21413;48.032;7.764;2023-03-21T07:43:16;5.93;;;4.77;;
35294;SDS011;21413;48.032;7.764;2023-03-21T07:45:42;5.20;;;5.00;;
35294;SDS011;21413;48.032;7.764;2023-03-21T07:48:09;4.80;;;4.57;;
35294;SDS011;21413;48.032;7.764;2023-03-21T07:50:36;5.10;;;4.70;;
35294;SDS011;21413;48.032;7.764;2023-03-21T07:53:05;5.00;;;4.70;;
35294;SDS011;21413;48.032;7.764;2023-03-21T07:55:31;4.40;;;4.10;;
35294;SDS011;21413;48.032;7.764;2023-03-21T07:57:59;4.67;;;4.47;;
35294;SDS011;21413;48.032;7.764;2023-03-21T08:00:25;4.80;;;4.60;;
35294;SDS011;21413;48.032;7.764;2023-03-21T08:02:52;5.13;;;4.83;;
35294;SDS011;21413;48.032;7.764;2023-03-21T08:05:22;5.83;;;5.20;;
35294;SDS011;21413;48.032;7.764;2023-03-21T08:07:49;5.90;;;5.50;;
35294;SDS011;21413;48.032;7.764;2023-03-21T08:10:15;10.17;;;6.17;;
35294;SDS011;21413;48.032;7.764;2023-03-21T08:12:42;5.90;;;5.50;;
35294;SDS011;21413;48.032;7.764;2023-03-21T08:15:08;6.60;;;6.00;;
35294;SDS011;21413;48.032;7.764;2023-03-21T08:17:37;8.10;;;5.90;;
35294;SDS011;21413;48.032;7.764;2023-03-21T08:20:06;6.17;;;5.57;;
35294;SDS011;21413;48.032;7.764;2023-03-21T08:22:34;7.47;;;5.63;;
35294;SDS011;21413;48.032;7.764;2023-03-21T08:25:00;6.57;;;5.53;;
35294;SDS011;21413;48.032;7.764;2023-03-21T08:27:29;5.20;;;4.87;;
35294;SDS011;21413;48.032;7.764;2023-03-21T08:29:55;6.33;;;5.73;;
35294;SDS011;21413;48.032;7.764;2023-03-21T08:32:21;5.83;;;5.43;;
35294;SDS011;21413;48.032;7.764;2023-03-21T08:34:53;8.37;;;7.57;;
35294;SDS011;21413;48.032;7.764;2023-03-21T08:37:19;7.40;;;6.70;;
35294;SDS011;21413;48.032;7.764;2023-03-21T08:39:48;6.50;;;6.00;;
35294;SDS011;21413;48.032;7.764;2023-03-21T08:42:14;5.90;;;5.50;;
35294;SDS011;21413;48.032;7.764;2023-03-21T08:44:40;6.20;;;5.63;;
35294;SDS011;21413;48.032;7.764;2023-03-21T08:47:06;19.23;;;11.37;;
35294;SDS011;21413;48.032;7.764;2023-03-21T08:49:37;9.80;;;6.17;;
35294;SDS011;21413;48.032;7.764;2023-03-21T08:52:03;11.70;;;10.00;;
35294;SDS011;21413;48.032;7.764;2023-03-21T08:54:31;19.70;;;13.03;;
35294;SDS011;21413;48.032;7.764;2023-03-21T08:56:57;19.47;;;12.80;;
35294;SDS011;21413;48.032;7.764;2023-03-21T08:59:23;19.80;;;12.60;;
35294;SDS011;21413;48.032;7.764;2023-03-21T09:01:49;6.43;;;4.43;;
35294;SDS011;21413;48.032;7.764;2023-03-21T09:04:16;10.33;;;9.33;;
35294;SDS011;21413;48.032;7.764;2023-03-21T09:06:42;5.33;;;4.40;;
35294;SDS011;21413;48.032;7.764;2023-03-21T09:09:13;4.20;;;4.00;;
35294;SDS011;21413;48.032;7.764;2023-03-21T09:11:39;5.30;;;2.90;;
35294;SDS011;21413;48.032;7.764;2023-03-21T09:14:08;2.97;;;2.87;;
35294;SDS011;21413;48.032;7.764;2023-03-21T09:16:35;2.30;;;2.20;;
35294;SDS011;21413;48.032;7.764;2023-03-21T09:19:01;2.47;;;2.47;;
35294;SDS011;21413;48.032;7.764;2023-03-21T09:21:28;4.97;;;2.73;;
35294;SDS011;21413;48.032;7.764;2023-03-21T09:23:57;2.83;;;2.73;;
35294;SDS011;21413;48.032;7.764;2023-03-21T09:26:24;3.00;;;2.30;;
35294;SDS011;21413;48.032;7.764;2023-03-21T09:28:52;2.00;;;1.90;;
35294;SDS011;21413;48.032;7.764;2023-03-21T09:31:18;3.83;;;2.60;;
35294;SDS011;21413;48.032;7.764;2023-03-21T09:33:47;2.50;;;2.40;;
35294;SDS011;21413;48.032;7.764;2023-03-21T09:36:16;2.67;;;2.57;;
35294;SDS011;21413;48.032;7.764;2023-03-21T09:38:43;3.57;;;3.37;;
35294;SDS011;21413;48.032;7.764;2023-03-21T09:41:30;2.77;;;2.67;;
35294;SDS011;21413;48.032;7.764;2023-03-21T09:49:15;2.20;;;2.10;;
35294;SDS011;21413;48.032;7.764;2023-03-21T09:51:43;2.30;;;2.20;;
35294;SDS011;21413;48.032;7.764;2023-03-21T09:54:12;2.60;;;2.50;;
35294;SDS011;21413;48.032;7.764;2023-03-21T09:56:40;3.70;;;2.20;;
35294;SDS011;21413;48.032;7.764;2023-03-21T09:59:09;2.37;;;2.20;;
35294;SDS011;21413;48.032;7.764;2023-03-21T10:01:39;2.70;;;2.50;;
35294;SDS011;21413;48.032;7.764;2023-03-21T10:04:10;2.90;;;2.70;;
35294;SDS011;21413;48.032;7.764;2023-03-21T10:06:38;2.90;;;2.80;;
35294;SDS011;21413;48.032;7.764;2023-03-21T10:09:06;2.73;;;2.63;;
35294;SDS011;21413;48.032;7.764;2023-03-21T10:12:19;2.70;;;2.60;;
35294;SDS011;21413;48.032;7.764;2023-03-21T10:16:51;2.27;;;2.27;;
35294;SDS011;21413;48.032;7.764;2023-03-21T10:19:20;6.93;;;2.80;;
35294;SDS011;21413;48.032;7.764;2023-03-21T10:21:47;2.50;;;2.40;;
35294;SDS011;21413;48.032;7.764;2023-03-21T10:24:24;2.30;;;2.20;;
35294;SDS011;21413;48.032;7.764;2023-03-21T10:26:50;2.60;;;2.30;;
35294;SDS011;21413;48.032;7.764;2023-03-21T10:29:17;5.00;;;2.00;;
35294;SDS011;21413;48.032;7.764;2023-03-21T10:31:48;2.63;;;2.53;;
35294;SDS011;21413;48.032;7.764;2023-03-21T10:34:18;2.40;;;2.40;;
35294;SDS011;21413;48.032;7.764;2023-03-21T10:36:45;2.50;;;2.10;;
35294;SDS011;21413;48.032;7.764;2023-03-21T10:39:22;2.20;;;2.10;;
35294;SDS011;21413;48.032;7.764;2023-03-21T10:41:51;2.60;;;2.50;;
35294;SDS011;21413;48.032;7.764;2023-03-21T10:44:18;2.90;;;2.67;;
35294;SDS011;21413;48.032;7.764;2023-03-21T10:46:52;2.40;;;2.20;;
35294;SDS011;21413;48.032;7.764;2023-03-21T10:49:20;1.93;;;1.83;;
35294;SDS011;21413;48.032;7.764;2023-03-21T10:51:51;2.30;;;2.20;;
35294;SDS011;21413;48.032;7.764;2023-03-21T10:54:18;2.30;;;2.30;;
35294;SDS011;21413;48.032;7.764;2023-03-21T10:57:04;4.30;;;2.70;;
35294;SDS011;21413;48.032;7.764;2023-03-21T10:59:39;4.10;;;2.97;;
35294;SDS011;21413;48.032;7.764;2023-03-21T11:02:13;20.20;;;15.80;;
35294;SDS011;21413;48.032;7.764;2023-03-21T11:04:41;6.50;;;5.20;;
35294;SDS011;21413;48.032;7.764;2023-03-21T11:07:08;3.70;;;2.30;;
35294;SDS011;21413;48.032;7.764;2023-03-21T11:12:10;3.97;;;3.20;;
35294;SDS011;21413;48.032;7.764;2023-03-21T11:14:38;3.60;;;2.77;;
35294;SDS011;21413;48.032;7.764;2023-03-21T11:17:27;2.67;;;2.50;;
35294;SDS011;21413;48.032;7.764;2023-03-21T11:19:57;2.67;;;2.33;;
35294;SDS011;21413;48.032;7.764;2023-03-21T11:22:25;1.80;;;1.80;;
35294;SDS011;21413;48.032;7.764;2023-03-21T11:24:53;2.07;;;2.03;;
35294;SDS011;21413;48.032;7.764;2023-03-21T11:27:21;3.63;;;2.10;;
35294;SDS011;21413;48.032;7.764;2023-03-21T11:29:53;3.53;;;2.20;;
35294;SDS011;21413;48.032;7.764;2023-03-21T11:32:35;2.30;;;2.10;;
35294;SDS011;21413;48.032;7.764;2023-03-21T11:35:05;2.23;;;2.13;;
35294;SDS011;21413;48.032;7.764;2023-03-21T11:37:33;8.43;;;2.70;;
35294;SDS011;21413;48.032;7.764;2023-03-21T11:40:07;5.60;;;2.30;;
35294;SDS011;21413;48.032;7.764;2023-03-21T11:42:41;3.57;;;2.60;;
35294;SDS011;21413;48.032;7.764;2023-03-21T11:47:37;2.40;;;2.30;;
35294;SDS011;21413;48.032;7.764;2023-03-21T11:52:40;1.90;;;1.80;;
35294;SDS011;21413;48.032;7.764;2023-03-21T11:57:56;1.90;;;1.80;;
35294;SDS011;21413;48.032;7.764;2023-03-21T12:00:45;2.67;;;2.47;;
35294;SDS011;21413;48.032;7.764;2023-03-21T12:03:33;2.10;;;2.10;;
35294;SDS011;21413;48.032;7.764;2023-03-21T12:06:04;2.30;;;2.27;;
35294;SDS011;21413;48.032;7.764;2023-03-21T12:11:18;2.37;;;2.17;;
35294;SDS011;21413;48.032;7.764;2023-03-21T12:21:43;2.13;;;2.03;;
35294;SDS011;21413;48.032;7.764;2023-03-21T12:24:19;2.77;;;2.63;;
35294;SDS011;21413;48.032;7.764;2023-03-21T12:39:48;2.30;;;1.70;;
35294;SDS011;21413;48.032;7.764;2023-03-21T12:42:37;1.50;;;1.47;;
35294;SDS011;21413;48.032;7.764;2023-03-21T12:45:11;1.57;;;1.53;;
35294;SDS011;21413;48.032;7.764;2023-03-21T12:47:37;1.40;;;1.30;;
35294;SDS011;21413;48.032;7.764;2023-03-21T12:50:11;1.37;;;1.37;;
35294;SDS011;21413;48.032;7.764;2023-03-21T12:52:39;1.30;;;1.30;;
35294;SDS011;21413;48.032;7.764;2023-03-21T12:55:12;1.47;;;1.37;;
35294;SDS011;21413;48.032;7.764;2023-03-21T12:57:40;1.40;;;1.40;;
35294;SDS011;21413;48.032;7.764;2023-03-21T13:02:43;1.40;;;1.20;;
35294;SDS011;21413;48.032;7.764;2023-03-21T13:05:21;1.10;;;1.10;;
35294;SDS011;21413;48.032;7.764;2023-03-21T13:07:53;1.37;;;1.23;;
35294;SDS011;21413;48.032;7.764;2023-03-21T13:10:21;2.53;;;1.30;;
35294;SDS011;21413;48.032;7.764;2023-03-21T13:12:57;1.57;;;1.47;;
35294;SDS011;21413;48.032;7.764;2023-03-21T13:15:31;1.13;;;1.13;;
35294;SDS011;21413;48.032;7.764;2023-03-21T13:20:48;1.30;;;1.30;;
35294;SDS011;21413;48.032;7.764;2023-03-21T13:23:17;1.57;;;1.57;;
35294;SDS011;21413;48.032;7.764;2023-03-21T13:25:45;3.03;;;1.40;;
35294;SDS011;21413;48.032;7.764;2023-03-21T13:28:21;2.50;;;1.10;;
35294;SDS011;21413;48.032;7.764;2023-03-21T13:30:52;1.10;;;1.10;;
35294;SDS011;21413;48.032;7.764;2023-03-21T13:33:19;1.30;;;1.30;;
35294;SDS011;21413;48.032;7.764;2023-03-21T13:36:04;1.33;;;1.23;;
35294;SDS011;21413;48.032;7.764;2023-03-21T13:38:34;2.40;;;1.10;;
35294;SDS011;21413;48.032;7.764;2023-03-21T13:59:10;1.20;;;1.20;;
35294;SDS011;21413;48.032;7.764;2023-03-21T14:01:40;1.00;;;1.00;;
35294;SDS011;21413;48.032;7.764;2023-03-21T14:09:13;1.27;;;1.00;;
35294;SDS011;21413;48.032;7.764;2023-03-21T14:11:44;1.37;;;1.37;;
35294;SDS011;21413;48.032;7.764;2023-03-21T14:14:13;1.17;;;1.17;;
35294;SDS011;21413;48.032;7.764;2023-03-21T14:16:39;1.50;;;1.40;;
35294;SDS011;21413;48.032;7.764;2023-03-21T14:19:06;3.90;;;1.10;;
35294;SDS011;21413;48.032;7.764;2023-03-21T14:21:35;1.40;;;1.40;;
35294;SDS011;21413;48.032;7.764;2023-03-21T14:26:29;1.20;;;1.20;;
35294;SDS011;21413;48.032;7.764;2023-03-21T14:28:56;2.87;;;1.30;;
35294;SDS011;21413;48.032;7.764;2023-03-21T14:31:23;1.13;;;1.13;;
35294;SDS011;21413;48.032;7.764;2023-03-21T14:33:50;4.73;;;1.13;;
35294;SDS011;21413;48.032;7.764;2023-03-21T14:36:19;3.90;;;1.10;;
35294;SDS011;21413;48.032;7.764;2023-03-21T14:38:55;1.30;;;1.30;;
35294;SDS011;21413;48.032;7.764;2023-03-21T14:41:25;1.30;;;1.20;;
35294;SDS011;21413;48.032;7.764;2023-03-21T14:46:36;1.13;;;1.13;;
35294;SDS011;21413;48.032;7.764;2023-03-21T14:49:09;1.10;;;1.10;;
35294;SDS011;21413;48.032;7.764;2023-03-21T14:51:35;3.50;;;1.10;;
35294;SDS011;21413;48.032;7.764;2023-03-21T14:54:02;0.87;;;0.87;;
35294;SDS011;21413;48.032;7.764;2023-03-21T14:56:30;1.20;;;1.10;;
35294;SDS011;21413;48.032;7.764;2023-03-21T14:58:58;1.30;;;1.30;;
35294;SDS011;21413;48.032;7.764;2023-03-21T15:01:27;1.10;;;1.10;;
35294;SDS011;21413;48.032;7.764;2023-03-21T15:03:55;1.33;;;1.10;;
35294;SDS011;21413;48.032;7.764;2023-03-21T15:06:24;1.10;;;1.00;;
35294;SDS011;21413;48.032;7.764;2023-03-21T15:08:54;1.60;;;0.93;;
35294;SDS011;21413;48.032;7.764;2023-03-21T15:11:30;0.93;;;0.93;;
35294;SDS011;21413;48.032;7.764;2023-03-21T15:13:56;2.50;;;1.30;;
35294;SDS011;21413;48.032;7.764;2023-03-21T15:16:25;7.13;;;1.50;;
35294;SDS011;21413;48.032;7.764;2023-03-21T15:18:51;0.97;;;0.90;;
35294;SDS011;21413;48.032;7.764;2023-03-21T15:23:46;1.47;;;1.37;;
35294;SDS011;21413;48.032;7.764;2023-03-21T15:26:15;0.93;;;0.93;;
35294;SDS011;21413;48.032;7.764;2023-03-21T15:28:43;0.73;;;0.73;;
35294;SDS011;21413;48.032;7.764;2023-03-21T15:31:28;1.10;;;1.10;;
35294;SDS011;21413;48.032;7.764;2023-03-21T15:33:55;2.30;;;0.90;;
35294;SDS011;21413;48.032;7.764;2023-03-21T15:36:25;1.13;;;1.10;;
35294;SDS011;21413;48.032;7.764;2023-03-21T15:38:51;1.07;;;1.07;;
35294;SDS011;21413;48.032;7.764;2023-03-21T15:43:47;1.30;;;1.20;;
35294;SDS011;21413;48.032;7.764;2023-03-21T15:46:24;0.97;;;0.90;;
35294;SDS011;21413;48.032;7.764;2023-03-21T15:49:09;1.10;;;1.10;;
35294;SDS011;21413;48.032;7.764;2023-03-21T15:51:42;1.20;;;1.20;;
35294;SDS011;21413;48.032;7.764;2023-03-21T15:54:13;1.37;;;0.93;;
35294;SDS011;21413;48.032;7.764;2023-03-21T15:56:39;1.50;;;0.73;;
35294;SDS011;21413;48.032;7.764;2023-03-21T15:59:11;1.03;;;1.03;;
35294;SDS011;21413;48.032;7.764;2023-03-21T16:01:38;1.00;;;1.00;;
35294;SDS011;21413;48.032;7.764;2023-03-21T16:04:10;1.47;;;1.40;;
35294;SDS011;21413;48.032;7.764;2023-03-21T16:09:23;1.27;;;1.27;;
35294;SDS011;21413;48.032;7.764;2023-03-21T16:11:50;2.40;;;1.10;;
35294;SDS011;21413;48.032;7.764;2023-03-21T16:14:19;2.00;;;1.50;;
35294;SDS011;21413;48.032;7.764;2023-03-21T16:16:46;1.00;;;1.00;;
35294;SDS011;21413;48.032;7.764;2023-03-21T16:19:12;1.03;;;0.90;;
35294;SDS011;21413;48.032;7.764;2023-03-21T16:21:38;1.40;;;1.30;;
35294;SDS011;21413;48.032;7.764;2023-03-21T16:24:07;1.30;;;1.30;;
35294;SDS011;21413;48.032;7.764;2023-03-21T16:26:38;2.60;;;0.97;;
35294;SDS011;21413;48.032;7.764;2023-03-21T16:29:04;1.20;;;1.10;;
35294;SDS011;21413;48.032;7.764;2023-03-21T16:31:32;0.97;;;0.97;;
35294;SDS011;21413;48.032;7.764;2023-03-21T16:34:01;2.03;;;1.03;;
35294;SDS011;21413;48.032;7.764;2023-03-21T16:36:30;3.20;;;1.30;;
35294;SDS011;21413;48.032;7.764;2023-03-21T16:38:56;1.10;;;1.10;;
35294;SDS011;21413;48.032;7.764;2023-03-21T16:41:23;1.53;;;1.40;;
35294;SDS011;21413;48.032;7.764;2023-03-21T16:43:49;2.47;;;1.20;;
35294;SDS011;21413;48.032;7.764;2023-03-21T16:46:22;1.07;;;1.07;;
35294;SDS011;21413;48.032;7.764;2023-03-21T16:48:50;1.77;;;1.67;;
35294;SDS011;21413;48.032;7.764;2023-03-21T16:51:20;1.10;;;1.10;;
35294;SDS011;21413;48.032;7.764;2023-03-21T16:53:47;1.13;;;1.00;;
35294;SDS011;21413;48.032;7.764;2023-03-21T16:56:18;1.17;;;1.17;;
35294;SDS011;21413;48.032;7.764;2023-03-21T16:58:45;1.20;;;1.20;;
35294;SDS011;21413;48.032;7.764;2023-03-21T17:01:14;3.60;;;1.20;;
35294;SDS011;21413;48.032;7.764;2023-03-21T17:03:43;1.27;;;1.17;;
35294;SDS011;21413;48.032;7.764;2023-03-21T17:06:12;1.40;;;1.37;;
35294;SDS011;21413;48.032;7.764;2023-03-21T17:08:39;1.30;;;1.30;;